« Back
NWS Peachtree City, Ga » Text Product » AHN Terminal Aerodrome Forecast


Printer-friendly Version
Current Version              Previous Versions:   1  2  3  4  5  6  7  8  9  

Terminal Aerodrome Forecast

508
FTUS42 KFFC 301731
TAFAHN
TAF
KAHN 301731Z 3018/3118 33005KT P6SM FEW040
     FM310100 02003KT P6SM FEW250
     FM310600 02003KT 4SM BR FEW250
     FM311400 06004KT P6SM FEW040
     FM311600 07005KT P6SM SCT050=

USA.gov is the U.S. government's official web portal to all federal, state and local government web resources and services.